EGPO - Stornoway, United Kingdom
Distance from station: E 3km
Updated: Wed, 07-Dec-2022 5:50am GMT
Light rain, Mostly cloudy
Light rain, Mostly cloudy
 Wind from N
Wind: N 16 mph , 26 km/h
Temperature: 4°C
Wind Chill: -1°C
Dew Point: 2°C
Humidity: 87%
Barometer: 1027 hPa
Summary: Light Rain
Clouds: Mostly Cloudy
Visibility: 6 miles , 10 km
Cloud details: Partly Cloudy 396 m
Mostly Cloudy 1341 m
2022/12/07 05:50 EGPO 070550Z 35014KT 9999 -RA SCT013 BKN044 04/02 Q1027
EGPL - Benbecula Island, United Kingdom
Distance from station: SW 102km
Updated: Wed, 07-Dec-2022 5:50am GMT
Overcast
Overcast
 Wind from NE
Wind: NE 13 mph , 20 km/h
Temperature: 5°C
Wind Chill: 1°C
Dew Point: 2°C
Humidity: 81%
Barometer: 1028 hPa
Clouds: Overcast
Visibility: 6 miles , 10 km
Cloud details: Few Clouds 213 m
Overcast 305 m
2022/12/07 05:50 EGPL 070550Z AUTO 04011KT 9999 FEW007/// OVC010/// 05/02 Q1028
EGQA - Tain Range (saws, United Kingdom
Distance from station: ESE 149km
Updated: Tue, 06-Dec-2022 2:50pm GMT
NOT Current
Nearby showers, Partly cloudy
Nearby showers, Partly cloudy
 Wind from NNW
Wind: NNW 12 mph , 19 km/h
Summary: Nearby Showers
Clouds: Partly Cloudy
Visibility: 6 miles , 10 km
Cloud details: Few Clouds 305 m
Partly Cloudy 1524 m
2022/12/06 14:50 EGQA 061450Z 33010KT 9999 VCSH FEW010 SCT050 05/// Q1030 RMK BLU
 
EGPE - Inverness/Dalcro, United Kingdom
Distance from station: ESE 158km
Updated: Wed, 07-Dec-2022 5:50am GMT
Few Clouds
Few Clouds
 Wind from NW
Wind: NW 9 mph , 15 km/h
Temperature: 4°C
Wind Chill: 1°C
Dew Point: 0°C
Humidity: 75%
Barometer: 1026 hPa
Clouds: Few Clouds
Visibility: 6 miles , 10 km
Cloud details: Few Clouds 1006 m
2022/12/07 05:50 EGPE 070550Z 31008KT 9999 FEW033 04/M00 Q1026
EGQS - Lossiemouth Raf, United Kingdom
Distance from station: ESE 188km
Updated: Wed, 07-Dec-2022 5:50am GMT
Overcast
Overcast
 Wind from NNW
Wind: NNW 18 mph , 30 km/h
Temperature: 4°C
Wind Chill: -1°C
Dew Point: 1°C
Humidity: 81%
Barometer: 1024 hPa
Clouds: Overcast
Visibility: 6 miles , 10 km
Cloud details: Partly Cloudy 701 m
Overcast 1524 m
2022/12/07 05:50 EGQS 070550Z 33016KT 9999 SCT023 OVC050 04/01 Q1024 RMK WHT
EGPU - Tiree Island, United Kingdom
Distance from station: S 193km
Updated: Wed, 07-Dec-2022 5:50am GMT
Mostly Cloudy
Mostly Cloudy
 Wind from N
Wind: N 13 mph , 20 km/h
Temperature: 6°C
Wind Chill: 2°C
Dew Point: 0°C
Humidity: 66%
Barometer: 1027 hPa
Clouds: Mostly Cloudy
Visibility: 6 miles , 10 km
Cloud details: Mostly Cloudy 1128 m
2022/12/07 05:50 EGPU 070550Z AUTO 01011KT 330V030 9999 BKN037/// 06/M00 Q1027
 
EGPC - Wick, United Kingdom
Distance from station: E 195km
Updated: Wed, 07-Dec-2022 5:50am GMT
Partly Cloudy
Partly Cloudy
 Wind from NNW
Wind: NNW 17 mph , 28 km/h
Temperature: 3°C
Wind Chill: -3°C
Dew Point: 1°C
Humidity: 87%
Barometer: 1023 hPa
Clouds: Partly Cloudy
Visibility: 6 miles , 10 km
Cloud details: Few Clouds 701 m
Partly Cloudy 1250 m
2022/12/07 05:50 EGPC 070550Z AUTO 34015KT 9999 FEW023/// SCT041/// 03/01 Q1023
EGEO - Oban Airport, United Kingdom
Distance from station: SSE 203km
Updated: Tue, 06-Dec-2022 3:50pm GMT
NOT Current
Clear
Clear
 Wind from N
Wind: N 7 mph , 11 km/h
Temperature: 3°C
Wind Chill: 0°C
Dew Point: -2°C
Humidity: 70%
Barometer: 1029 hPa
Summary: Clear
Visibility: greater than 7 miles , 10 km
2022/12/06 15:50 EGEO 061550Z 01006KT CAVOK 03/M02 Q1029
EGPA - Kirkwall Airport, United Kingdom
Distance from station: ENE 218km
Updated: Wed, 07-Dec-2022 5:50am GMT
Nearby showers, Mostly cloudy
Nearby showers, Mostly cloudy
 Wind from N
Wind: N 24 mph , 39 km/h
Temperature: 4°C
Wind Chill: -2°C
Dew Point: 1°C
Humidity: 81%
Barometer: 1023 hPa
Summary: Nearby Showers
Clouds: Mostly Cloudy
Visibility: 6 miles , 10 km
Cloud details: Few Clouds 762 m
Mostly Cloudy 1311 m
2022/12/07 05:50 EGPA 070550Z 36021KT 9999 VCSH FEW025 BKN043 04/01 Q1023
 
EGPD - Aberdeen/Dyce, United Kingdom
Distance from station: ESE 271km
Updated: Wed, 07-Dec-2022 5:50am GMT
Light rain, Mostly cloudy
Light rain, Mostly cloudy
 Wind from NW
Wind: NW 13 mph , 20 km/h
Temperature: 2°C
Wind Chill: -3°C
Dew Point: 1°C
Humidity: 93%
Barometer: 1023 hPa
Summary: Light Rain
Clouds: Mostly Cloudy
Visibility: 6 miles , 10 km
Cloud details: Few Clouds 549 m
Partly Cloudy 823 m
Mostly Cloudy 1250 m
2022/12/07 05:50 EGPD 070550Z AUTO 31011KT 9999 -RA FEW018 SCT027 BKN041 02/01 Q1023 RERA TEMPO SHRA
EGPI - Islay/Port Ellen, United Kingdom
Distance from station: S 281km
Updated: Tue, 06-Dec-2022 6:20pm GMT
NOT Current
Mostly Cloudy
Mostly Cloudy
 Wind from NNE
Wind: NNE 2 mph , 4 km/h
Temperature: 4°C
Dew Point: -1°C
Humidity: 70%
Barometer: 1029 hPa
Clouds: Mostly Cloudy
Visibility: 6 miles , 10 km
Cloud details: Few Clouds 610 m
Mostly Cloudy 1280 m
2022/12/06 18:20 EGPI 061820Z 03002KT 9999 FEW020 BKN042 04/M01 Q1029
EGPN - Dundee/Riverside, United Kingdom
Distance from station: SE 281km
Updated: Tue, 06-Dec-2022 8:50pm GMT
NOT Current
Few Clouds
Few Clouds
 Wind from NW
Wind: NW 5 mph , 7 km/h
Temperature: 1°C
Wind Chill: -2°C
Dew Point: -2°C
Humidity: 81%
Barometer: 1027 hPa
Clouds: Few Clouds
Visibility: 6 miles , 10 km
Cloud details: Few Clouds 1219 m
2022/12/06 20:50 EGPN 062050Z 31004KT 9999 FEW040 01/M02 Q1027
 
EGPF - Glasgow Airport, United Kingdom
Distance from station: SSE 286km
Updated: Wed, 07-Dec-2022 5:50am GMT
Clear
Clear
 Wind from SW
Wind: SW 3 mph , 6 km/h
Temperature: -4°C
Dew Point: -5°C
Humidity: 93%
Barometer: 1026 hPa
Clouds: Clear
Visibility: 6 miles , 10 km
2022/12/07 05:50 EGPF 070550Z AUTO 23003KT 170V270 9999 NCD M04/M05 Q1026
EGQL - Leuchars Raf, United Kingdom
Distance from station: SE 293km
Updated: Wed, 07-Dec-2022 5:50am GMT
Partly Cloudy
Partly Cloudy
 Wind from WNW
Wind: WNW 8 mph , 13 km/h
Temperature: 2°C
Wind Chill: -1°C
Dew Point: -1°C
Humidity: 81%
Barometer: 1024 hPa
Clouds: Partly Cloudy
Visibility: 6 miles , 10 km
Cloud details: Few Clouds 1219 m
Partly Cloudy 1585 m
2022/12/07 05:50 EGQL 070550Z 29007KT 9999 FEW040 SCT052 02/M01 Q1024 RMK BLU
EGPH - Edinburgh Airpor, United Kingdom
Distance from station: SE 311km
Updated: Wed, 07-Dec-2022 5:50am GMT
Clear
Clear
 Wind from W
Wind: W 6 mph , 9 km/h
Temperature: -1°C
Wind Chill: -4°C
Dew Point: -3°C
Humidity: 86%
Barometer: 1025 hPa
Summary: Clear
Visibility: greater than 7 miles , 10 km
2022/12/07 05:50 EGPH 070550Z 27005KT CAVOK M01/M03 Q1025
 
EGEC - Campbeltown, United Kingdom
Distance from station: S 312km
Updated: Tue, 06-Dec-2022 7:50pm GMT
NOT Current
Clear
Clear
 Wind from SSE
Wind: SSE 1 mph , 2 km/h
Temperature: 0°C
Dew Point: -3°C
Humidity: 80%
Barometer: 1028 hPa
Summary: Clear
Visibility: greater than 7 miles , 10 km
2022/12/06 19:50 EGEC 061950Z 15001KT CAVOK M00/M03 Q1028
EGPK - Prestwick(Civ/Na, United Kingdom
Distance from station: SSE 321km
Updated: Wed, 07-Dec-2022 5:50am GMT
Clear
Clear
 Wind from calm
Wind: Calm
Temperature: -3°C
Dew Point: -4°C
Humidity: 93%
Barometer: 1026 hPa
Summary: Clear
Visibility: greater than 7 miles , 10 km
2022/12/07 05:50 EGPK 070550Z 00000KT CAVOK M03/M04 Q1026
EGPB - Sumburgh (cape), United Kingdom
Distance from station: NE 343km
Updated: Wed, 07-Dec-2022 5:50am GMT
Mostly Cloudy
Mostly Cloudy
 Wind from N
Wind: N 12 mph , 19 km/h
Temperature: 2°C
Wind Chill: -2°C
Dew Point: -4°C
Humidity: 65%
Barometer: 1021 hPa
Clouds: Mostly Cloudy
Visibility: 6 miles , 10 km
Cloud details: Few Clouds 945 m
Mostly Cloudy 1219 m
2022/12/07 05:50 EGPB 070550Z AUTO 01010KT 9999 FEW031/// BKN040/// 02/M04 Q1021

Metar display script from Saratoga-Weather.org